createdAt,value
2023-02-25T00:01:14.250Z,62.60
2023-02-25T00:02:48.491Z,62.80
2023-02-25T00:04:21.701Z,62.80
2023-02-25T00:05:55.208Z,62.70
2023-02-25T00:07:28.830Z,62.60
2023-02-25T00:09:02.402Z,62.60
2023-02-25T00:10:35.087Z,62.40
2023-02-25T00:12:11.103Z,62.60
2023-02-25T00:13:44.810Z,62.70
2023-02-25T00:15:20.978Z,62.50
2023-02-25T00:17:02.643Z,62.60
2023-02-25T00:18:44.964Z,62.60
2023-02-25T00:20:23.080Z,62.70
2023-02-25T00:22:01.876Z,62.60
2023-02-25T00:23:44.582Z,62.50
2023-02-25T00:25:29.623Z,62.30
2023-02-25T00:27:08.618Z,62.50
2023-02-25T00:28:49.466Z,62.50
2023-02-25T00:30:29.915Z,62.40
2023-02-25T00:32:07.595Z,62.40
2023-02-25T00:33:48.206Z,62.40
2023-02-25T00:35:30.078Z,62.30
2023-02-25T00:37:10.022Z,62.40
2023-02-25T00:38:52.709Z,62.50
2023-02-25T00:40:32.106Z,62.50
2023-02-25T00:42:15.730Z,62.60
2023-02-25T00:43:57.393Z,62.70
2023-02-25T00:45:41.247Z,62.80
2023-02-25T00:47:24.181Z,62.70
2023-02-25T00:49:00.252Z,62.50
2023-02-25T00:50:32.731Z,62.20
2023-02-25T00:52:06.396Z,62.10
2023-02-25T00:53:43.084Z,62.10
2023-02-25T00:55:20.360Z,62.20
2023-02-25T00:56:59.529Z,62.10
2023-02-25T00:58:39.940Z,62.30
2023-02-25T01:00:19.612Z,63.10
2023-02-25T01:01:57.386Z,62.50
2023-02-25T01:03:34.994Z,63.10
2023-02-25T01:05:12.291Z,62.60
2023-02-25T01:06:49.633Z,62.80
2023-02-25T01:08:29.373Z,62.70
2023-02-25T01:10:11.343Z,62.30
2023-02-25T01:11:50.786Z,62.30
2023-02-25T01:13:27.385Z,62.40
2023-02-25T01:15:04.664Z,62.40
2023-02-25T01:16:47.466Z,62.40
2023-02-25T01:18:31.947Z,62.50
2023-02-25T01:20:14.049Z,62.50
2023-02-25T01:21:53.012Z,62.50
2023-02-25T01:23:30.964Z,62.30
2023-02-25T01:25:17.172Z,62.20
2023-02-25T01:26:55.438Z,62.10
2023-02-25T01:28:34.425Z,61.90
2023-02-25T01:30:12.485Z,62.20
2023-02-25T01:31:55.130Z,62.30
2023-02-25T01:33:33.411Z,62.30
2023-02-25T01:35:09.949Z,62.40
2023-02-25T01:36:50.344Z,62.40
2023-02-25T01:38:28.050Z,62.30
2023-02-25T01:40:05.727Z,62.50
2023-02-25T01:41:46.914Z,62.50
2023-02-25T01:43:24.530Z,62.40
2023-02-25T01:45:32.467Z,62.30
2023-02-25T01:47:23.083Z,62.50
2023-02-25T01:49:07.621Z,62.30
2023-02-25T01:50:52.939Z,62.40
2023-02-25T01:52:32.485Z,62.30
2023-02-25T01:54:13.488Z,62.10
2023-02-25T01:55:50.100Z,62.10
2023-02-25T01:57:30.837Z,61.90
2023-02-25T01:59:09.592Z,62.00
2023-02-25T02:00:48.097Z,61.90
2023-02-25T02:02:35.219Z,61.90
2023-02-25T02:04:20.722Z,61.90
2023-02-25T02:06:04.977Z,62.00
2023-02-25T02:07:49.451Z,62.00
2023-02-25T02:09:29.203Z,62.00
2023-02-25T02:11:07.726Z,62.10
2023-02-25T02:12:47.874Z,62.20
2023-02-25T02:14:38.119Z,62.30
2023-02-25T02:16:38.701Z,62.30
2023-02-25T02:18:17.177Z,62.30
2023-02-25T02:20:14.721Z,62.40
2023-02-25T02:22:11.872Z,62.30
2023-02-25T02:24:42.901Z,62.30
2023-02-25T02:26:59.280Z,62.30
2023-02-25T02:29:25.889Z,62.20
2023-02-25T02:31:35.687Z,62.20
2023-02-25T02:33:19.677Z,62.20
2023-02-25T02:35:15.638Z,62.20
2023-02-25T02:37:05.321Z,62.20
2023-02-25T02:38:55.996Z,62.20
2023-02-25T02:40:54.391Z,62.40
2023-02-25T02:42:42.418Z,62.40
2023-02-25T02:44:27.328Z,62.40
2023-02-25T02:46:16.734Z,62.40
2023-02-25T02:48:00.924Z,62.50
2023-02-25T02:49:46.264Z,62.60
2023-02-25T02:51:29.548Z,62.50
2023-02-25T02:53:17.749Z,62.60
2023-02-25T02:55:07.483Z,62.60
2023-02-25T02:56:49.395Z,62.60
2023-02-25T02:58:36.487Z,62.40
2023-02-25T03:00:20.683Z,62.50
2023-02-25T03:02:10.180Z,62.50
2023-02-25T03:03:55.240Z,62.60
2023-02-25T03:05:35.600Z,62.70
2023-02-25T03:07:15.805Z,62.80
2023-02-25T03:08:58.225Z,62.80
2023-02-25T03:10:36.739Z,62.70
2023-02-25T03:12:16.081Z,62.90
2023-02-25T03:13:54.779Z,63.00
2023-02-25T03:15:34.081Z,63.10
2023-02-25T03:17:17.628Z,63.30
2023-02-25T03:19:04.955Z,63.40
2023-02-25T03:20:46.239Z,63.50
2023-02-25T03:22:30.319Z,63.50
2023-02-25T03:24:13.432Z,63.60
2023-02-25T03:25:59.886Z,63.50
2023-02-25T03:27:41.770Z,63.70
2023-02-25T03:29:24.744Z,63.90
2023-02-25T03:31:10.457Z,64.00
2023-02-25T03:32:57.401Z,63.90
2023-02-25T03:34:41.030Z,64.10
2023-02-25T03:36:23.054Z,64.00
2023-02-25T03:38:10.635Z,63.90
2023-02-25T03:39:56.469Z,64.00
2023-02-25T03:41:39.058Z,63.90
2023-02-25T03:43:25.838Z,63.80
2023-02-25T03:45:07.633Z,63.90
2023-02-25T03:46:48.798Z,64.00
2023-02-25T03:48:28.954Z,64.00
2023-02-25T03:50:18.166Z,64.10
2023-02-25T03:52:04.331Z,64.10
2023-02-25T03:53:41.984Z,63.80
2023-02-25T03:55:23.264Z,63.80
2023-02-25T03:57:06.301Z,63.60
2023-02-25T03:58:46.371Z,63.80
2023-02-25T04:00:30.628Z,63.80
2023-02-25T04:02:09.134Z,64.60
2023-02-25T04:03:48.101Z,63.80
2023-02-25T04:05:28.383Z,63.90
2023-02-25T04:07:06.324Z,63.90
2023-02-25T04:08:44.688Z,64.00
2023-02-25T04:10:24.105Z,64.10
2023-02-25T04:12:01.716Z,64.20
2023-02-25T04:13:40.477Z,64.30
2023-02-25T04:15:20.995Z,65.10
2023-02-25T04:17:04.285Z,64.30
2023-02-25T04:18:41.049Z,64.20
2023-02-25T04:20:20.597Z,64.10
2023-02-25T04:21:58.390Z,64.20
2023-02-25T04:23:35.848Z,64.20
2023-02-25T04:25:15.519Z,64.20
2023-02-25T04:26:59.189Z,64.20
2023-02-25T04:28:36.508Z,64.20
2023-02-25T04:30:15.499Z,64.30
2023-02-25T04:31:53.119Z,64.30
2023-02-25T04:33:29.994Z,64.40
2023-02-25T04:35:10.217Z,64.20
2023-02-25T04:36:49.116Z,64.30
2023-02-25T04:38:27.178Z,64.20
2023-02-25T04:40:02.820Z,64.10
2023-02-25T04:41:40.625Z,64.20
2023-02-25T04:43:17.890Z,64.20
2023-02-25T04:44:58.262Z,64.30
2023-02-25T04:46:37.475Z,64.40
2023-02-25T04:48:14.864Z,64.30
2023-02-25T04:49:52.933Z,64.20
2023-02-25T04:51:30.427Z,64.10
2023-02-25T04:53:14.445Z,64.10
2023-02-25T04:54:54.733Z,64.20
2023-02-25T04:56:32.237Z,64.30
2023-02-25T04:58:09.860Z,64.20
2023-02-25T04:59:47.995Z,64.30
2023-02-25T05:01:25.578Z,64.30
2023-02-25T05:03:05.266Z,64.10
2023-02-25T05:04:43.464Z,64.00
2023-02-25T05:06:19.317Z,63.90
2023-02-25T05:07:56.788Z,63.80
2023-02-25T05:09:38.887Z,63.80
2023-02-25T05:11:18.030Z,63.80
2023-02-25T05:13:01.067Z,63.90
2023-02-25T05:14:40.425Z,64.10
2023-02-25T05:16:20.011Z,64.10
2023-02-25T05:17:57.984Z,64.70
2023-02-25T05:19:34.063Z,63.90
2023-02-25T05:21:13.977Z,63.90
2023-02-25T05:22:53.531Z,63.90
2023-02-25T05:24:30.708Z,63.90
2023-02-25T05:26:14.257Z,63.90
2023-02-25T05:27:53.788Z,63.70
2023-02-25T05:29:31.787Z,63.90
2023-02-25T05:31:11.014Z,63.90
2023-02-25T05:32:49.021Z,63.70
2023-02-25T05:34:26.644Z,63.80
2023-02-25T05:36:03.525Z,64.60
2023-02-25T05:37:41.124Z,63.70
2023-02-25T05:39:18.717Z,63.70
2023-02-25T05:40:58.896Z,63.50
2023-02-25T05:42:36.744Z,63.50
2023-02-25T05:44:17.790Z,63.50
2023-02-25T05:45:57.821Z,63.40
2023-02-25T05:47:35.689Z,63.50
2023-02-25T05:49:16.431Z,63.60
2023-02-25T05:50:55.332Z,63.80
2023-02-25T05:52:32.581Z,63.90
2023-02-25T05:54:10.233Z,63.90
2023-02-25T05:55:47.667Z,64.10
2023-02-25T05:57:27.909Z,64.00
2023-02-25T05:59:08.940Z,64.00
2023-02-25T06:00:46.086Z,64.00
2023-02-25T06:02:23.139Z,64.00
2023-02-25T06:04:03.868Z,64.00
2023-02-25T06:05:47.765Z,63.70
2023-02-25T06:07:24.768Z,63.50
2023-02-25T06:09:03.505Z,63.40
2023-02-25T06:10:42.170Z,63.50
2023-02-25T06:12:19.521Z,63.50
2023-02-25T06:13:59.191Z,63.50
2023-02-25T06:15:40.578Z,63.60
2023-02-25T06:17:18.095Z,63.40
2023-02-25T06:18:57.004Z,63.60
2023-02-25T06:20:35.873Z,63.70
2023-02-25T06:22:13.540Z,63.80
2023-02-25T06:23:52.444Z,63.80
2023-02-25T06:25:30.603Z,63.70
2023-02-25T06:27:08.573Z,63.50
2023-02-25T06:28:46.170Z,63.50
2023-02-25T06:30:23.199Z,63.50
2023-02-25T06:32:02.579Z,63.50
2023-02-25T06:33:40.764Z,63.60
2023-02-25T06:35:18.527Z,63.60
2023-02-25T06:36:55.680Z,63.50
2023-02-25T06:38:31.597Z,63.60
2023-02-25T06:40:11.686Z,63.70
2023-02-25T06:41:50.179Z,63.90
2023-02-25T06:43:29.589Z,63.80
2023-02-25T06:45:07.746Z,63.80
2023-02-25T06:46:48.018Z,63.70
2023-02-25T06:48:27.220Z,63.80
2023-02-25T06:50:04.540Z,63.60
2023-02-25T06:51:42.054Z,63.50
2023-02-25T06:53:20.975Z,63.60
2023-02-25T06:54:58.066Z,63.60
2023-02-25T06:56:37.580Z,63.70
2023-02-25T06:58:15.646Z,63.90
2023-02-25T06:59:53.881Z,63.90
2023-02-25T07:01:33.575Z,63.90
2023-02-25T07:03:13.249Z,63.90
2023-02-25T07:04:51.856Z,63.90
2023-02-25T07:06:29.290Z,63.90
2023-02-25T07:08:06.358Z,64.00
2023-02-25T07:09:44.246Z,64.10
2023-02-25T07:11:36.616Z,64.00
2023-02-25T07:13:14.966Z,63.90
2023-02-25T07:14:52.441Z,63.90
2023-02-25T07:16:31.109Z,63.70
2023-02-25T07:18:08.974Z,63.90
2023-02-25T07:19:46.431Z,63.90
2023-02-25T07:21:25.566Z,64.10
2023-02-25T07:23:08.778Z,64.10
2023-02-25T07:24:46.607Z,64.20
2023-02-25T07:26:26.111Z,64.30
2023-02-25T07:28:02.952Z,64.30
2023-02-25T07:29:40.284Z,64.40
2023-02-25T07:31:23.237Z,64.50
2023-02-25T07:33:00.534Z,64.50
2023-02-25T07:34:38.180Z,64.40
2023-02-25T07:36:15.452Z,64.40
2023-02-25T07:37:54.339Z,64.30
2023-02-25T07:39:34.933Z,64.30
2023-02-25T07:41:14.432Z,64.40
2023-02-25T07:42:51.678Z,64.30
2023-02-25T07:44:31.654Z,64.40
2023-02-25T07:46:08.860Z,64.40
2023-02-25T07:47:45.627Z,64.40
2023-02-25T07:49:25.241Z,64.40
2023-02-25T07:51:12.393Z,64.20
2023-02-25T07:52:50.968Z,64.00
2023-02-25T07:54:31.918Z,63.90
2023-02-25T07:56:11.184Z,63.90
2023-02-25T07:57:50.950Z,63.80
2023-02-25T07:59:31.745Z,63.80
2023-02-25T08:01:16.140Z,63.90
2023-02-25T08:02:56.213Z,63.90
2023-02-25T08:04:34.183Z,64.00
2023-02-25T08:06:11.940Z,64.10
2023-02-25T08:07:48.546Z,64.10
2023-02-25T08:09:25.819Z,64.30
2023-02-25T08:11:08.427Z,64.50
2023-02-25T08:12:46.453Z,64.50
2023-02-25T08:14:26.821Z,65.40
2023-02-25T08:16:06.989Z,64.50
2023-02-25T08:17:50.920Z,64.50
2023-02-25T08:19:30.754Z,64.30
2023-02-25T08:21:10.950Z,64.30
2023-02-25T08:22:48.096Z,64.30
2023-02-25T08:24:28.546Z,64.10
2023-02-25T08:26:06.342Z,64.10
2023-02-25T08:27:44.684Z,64.10
2023-02-25T08:29:21.480Z,64.00
2023-02-25T08:31:03.242Z,64.00
2023-02-25T08:32:43.655Z,63.90
2023-02-25T08:34:20.367Z,63.90
2023-02-25T08:35:57.689Z,64.00
2023-02-25T08:37:34.226Z,64.00
2023-02-25T08:39:11.039Z,64.10
2023-02-25T08:40:47.838Z,64.20
2023-02-25T08:42:31.361Z,64.30
2023-02-25T08:44:08.065Z,64.40
2023-02-25T08:45:45.989Z,64.50
2023-02-25T08:47:22.460Z,64.50
2023-02-25T08:49:01.613Z,64.60
2023-02-25T08:50:41.048Z,64.60
2023-02-25T08:52:17.578Z,64.80
2023-02-25T08:53:55.422Z,64.90
2023-02-25T08:55:37.785Z,64.80
2023-02-25T08:57:14.586Z,64.90
2023-02-25T08:58:55.476Z,64.90
2023-02-25T09:00:34.350Z,64.80
2023-02-25T09:02:17.778Z,64.50
2023-02-25T09:04:00.025Z,64.60
2023-02-25T09:05:38.778Z,64.50
2023-02-25T09:07:26.662Z,64.60
2023-02-25T09:09:07.146Z,64.50
2023-02-25T09:10:50.229Z,64.70
2023-02-25T09:12:39.190Z,64.70
2023-02-25T09:14:19.482Z,64.90
2023-02-25T09:15:59.969Z,64.80
2023-02-25T09:17:38.227Z,65.10
2023-02-25T09:19:17.440Z,65.00
2023-02-25T09:20:52.507Z,65.00
2023-02-25T09:22:25.839Z,64.80
2023-02-25T09:24:00.739Z,64.70
2023-02-25T09:25:37.243Z,64.60
2023-02-25T09:27:15.515Z,64.80
2023-02-25T09:28:51.891Z,64.90
2023-02-25T09:30:29.745Z,64.80
2023-02-25T09:32:08.210Z,64.50
2023-02-25T09:33:45.450Z,64.50
2023-02-25T09:35:23.492Z,64.60
2023-02-25T09:37:00.180Z,64.60
2023-02-25T09:38:40.589Z,64.60
2023-02-25T09:40:23.522Z,64.50
2023-02-25T09:42:13.220Z,64.70
2023-02-25T09:43:56.319Z,64.60
2023-02-25T09:45:38.264Z,64.60
2023-02-25T09:47:23.414Z,64.70
2023-02-25T09:49:13.866Z,64.80
2023-02-25T09:50:59.958Z,64.60
2023-02-25T09:52:44.041Z,64.40
2023-02-25T09:54:31.575Z,64.20
2023-02-25T09:56:11.212Z,63.70
2023-02-25T09:57:57.626Z,63.30
2023-02-25T09:59:40.629Z,62.70
2023-02-25T10:01:35.125Z,62.00
2023-02-25T10:03:24.941Z,61.00
2023-02-25T10:05:27.854Z,60.30
2023-02-25T10:07:22.080Z,59.70
2023-02-25T10:09:17.619Z,59.50
2023-02-25T10:11:06.779Z,59.30
2023-02-25T10:12:58.275Z,59.30
2023-02-25T10:15:09.743Z,59.40
2023-02-25T10:16:59.616Z,59.40
2023-02-25T10:19:05.461Z,59.60
2023-02-25T10:21:08.505Z,59.90
2023-02-25T10:23:01.828Z,60.50
2023-02-25T10:24:49.696Z,60.80
2023-02-25T10:26:37.902Z,61.30
2023-02-25T10:28:20.877Z,61.50
2023-02-25T10:30:06.691Z,61.60
2023-02-25T10:31:48.204Z,61.80
2023-02-25T10:33:30.191Z,62.20
2023-02-25T10:35:27.101Z,62.70
2023-02-25T10:37:13.951Z,63.20
2023-02-25T10:38:53.204Z,63.30
2023-02-25T10:40:33.018Z,63.40
2023-02-25T10:42:10.515Z,63.50
2023-02-25T10:43:51.985Z,64.00
2023-02-25T10:45:33.030Z,64.70
2023-02-25T10:47:26.223Z,65.20
2023-02-25T10:49:21.225Z,65.30
2023-02-25T10:51:15.463Z,65.30
2023-02-25T10:53:05.362Z,64.10
2023-02-25T10:54:51.151Z,62.60
2023-02-25T10:56:33.561Z,61.30
2023-02-25T10:58:35.750Z,60.70
2023-02-25T11:00:29.766Z,59.90
2023-02-25T11:02:23.866Z,59.70
2023-02-25T11:04:10.205Z,59.60
2023-02-25T11:05:51.929Z,59.20
2023-02-25T11:07:38.920Z,59.20
2023-02-25T11:09:40.473Z,59.30
2023-02-25T11:11:24.983Z,59.50
2023-02-25T11:13:06.329Z,59.80
2023-02-25T11:14:43.439Z,60.00
2023-02-25T11:16:25.628Z,60.50
2023-02-25T11:18:21.680Z,60.90
2023-02-25T11:20:10.027Z,61.20
2023-02-25T11:21:48.781Z,62.10
2023-02-25T11:23:35.140Z,62.60
2023-02-25T11:25:23.052Z,62.80
2023-02-25T11:27:04.733Z,62.70
2023-02-25T11:28:49.207Z,62.80
2023-02-25T11:30:35.635Z,63.30
2023-02-25T11:32:17.030Z,63.30
2023-02-25T11:34:02.781Z,63.60
2023-02-25T11:35:44.027Z,63.80
2023-02-25T11:37:39.211Z,64.30
2023-02-25T11:39:25.242Z,64.80
2023-02-25T11:41:04.132Z,64.70
2023-02-25T11:42:43.498Z,64.50
2023-02-25T11:44:33.112Z,64.20
2023-02-25T11:46:16.042Z,64.00
2023-02-25T11:47:54.631Z,63.70
2023-02-25T11:50:01.324Z,63.50
2023-02-25T11:51:49.059Z,63.80
2023-02-25T11:53:50.715Z,63.80
2023-02-25T11:55:53.591Z,63.10
2023-02-25T11:57:43.830Z,62.70
2023-02-25T11:59:47.576Z,62.60
2023-02-25T12:01:55.660Z,61.70
2023-02-25T12:04:17.043Z,60.20
2023-02-25T12:06:24.102Z,59.40
2023-02-25T12:08:40.300Z,59.80
2023-02-25T12:11:09.099Z,59.50
2023-02-25T12:13:32.061Z,59.10
2023-02-25T12:16:08.610Z,58.70
2023-02-25T12:18:38.120Z,57.60
2023-02-25T12:21:20.304Z,57.40
2023-02-25T12:24:01.736Z,57.20
2023-02-25T12:25:52.404Z,57.80
2023-02-25T12:28:29.863Z,58.30
2023-02-25T12:31:03.075Z,58.00
2023-02-25T12:33:05.538Z,57.50
2023-02-25T12:35:37.012Z,57.30
2023-02-25T12:37:35.176Z,57.00
2023-02-25T12:39:38.844Z,56.90
2023-02-25T12:41:51.243Z,56.70
2023-02-25T12:46:29.282Z,56.70
2023-02-25T12:49:01.406Z,56.70
2023-02-25T12:51:18.529Z,56.40
2023-02-25T12:53:36.686Z,56.20
2023-02-25T12:56:20.911Z,56.10
2023-02-25T12:58:51.436Z,55.80
2023-02-25T13:01:08.925Z,55.10
2023-02-25T13:03:22.590Z,54.30
2023-02-25T13:05:39.558Z,54.20
2023-02-25T13:08:05.220Z,53.50
2023-02-25T13:10:38.499Z,53.20
2023-02-25T13:12:36.112Z,54.40
2023-02-25T13:14:40.324Z,55.30
2023-02-25T13:16:43.133Z,54.70
2023-02-25T13:18:30.453Z,54.20
2023-02-25T13:20:59.432Z,53.40
2023-02-25T13:22:59.079Z,51.30
2023-02-25T13:24:57.433Z,51.60
2023-02-25T13:27:19.227Z,51.60
2023-02-25T13:29:36.741Z,51.50
2023-02-25T13:31:22.916Z,50.80
2023-02-25T13:33:57.384Z,50.70
2023-02-25T13:35:51.156Z,49.70
2023-02-25T13:37:54.719Z,50.50
2023-02-25T13:40:17.744Z,49.70
2023-02-25T13:42:33.988Z,49.10
2023-02-25T13:44:46.561Z,48.90
2023-02-25T13:46:55.030Z,49.00
2023-02-25T13:49:16.986Z,48.60
2023-02-25T13:51:26.436Z,48.40
2023-02-25T13:53:32.512Z,47.70
2023-02-25T13:55:35.812Z,47.70
2023-02-25T13:57:33.225Z,46.60
2023-02-25T13:59:59.109Z,46.60
2023-02-25T14:01:56.669Z,46.40
2023-02-25T14:04:09.256Z,46.90
2023-02-25T14:06:03.360Z,46.60
2023-02-25T14:08:22.406Z,46.90
2023-02-25T14:10:15.414Z,46.50
2023-02-25T14:12:12.578Z,46.90
2023-02-25T14:14:14.399Z,47.10
2023-02-25T14:16:04.718Z,47.00
2023-02-25T14:18:07.142Z,46.70
2023-02-25T14:19:52.830Z,46.60
2023-02-25T14:22:01.769Z,47.60
2023-02-25T14:23:51.636Z,46.50
2023-02-25T14:25:46.581Z,47.00
2023-02-25T14:27:32.404Z,46.60
2023-02-25T14:29:21.845Z,46.70
2023-02-25T14:31:14.137Z,46.20
2023-02-25T14:33:12.423Z,45.60
2023-02-25T14:35:06.578Z,44.80
2023-02-25T14:37:02.669Z,45.10
2023-02-25T14:39:23.671Z,44.30
2023-02-25T14:41:14.716Z,44.00
2023-02-25T14:43:27.268Z,44.50
2023-02-25T14:45:13.920Z,44.50
2023-02-25T14:46:56.204Z,45.00
2023-02-25T14:48:39.486Z,44.40
2023-02-25T14:50:21.721Z,45.20
2023-02-25T14:52:33.273Z,44.40
2023-02-25T14:54:48.710Z,43.80
2023-02-25T14:56:52.156Z,43.80
2023-02-25T14:59:08.416Z,44.40
2023-02-25T15:01:06.191Z,44.20
2023-02-25T15:03:32.617Z,44.10
2023-02-25T15:05:32.423Z,43.70
2023-02-25T15:07:27.743Z,44.10
2023-02-25T15:09:48.046Z,44.40
2023-02-25T15:11:56.468Z,44.20
2023-02-25T15:14:12.506Z,44.30
2023-02-25T15:16:37.699Z,44.90
2023-02-25T15:18:53.082Z,44.90
2023-02-25T15:20:34.503Z,44.70
2023-02-25T15:22:25.148Z,45.10
2023-02-25T15:23:59.338Z,45.30
2023-02-25T15:25:46.285Z,45.60
2023-02-25T15:27:47.986Z,45.10
2023-02-25T15:29:59.531Z,44.40
2023-02-25T15:31:38.701Z,44.50
2023-02-25T15:33:38.415Z,45.00
2023-02-25T15:35:20.814Z,44.40
2023-02-25T15:37:24.970Z,43.70
2023-02-25T15:38:58.632Z,42.60
2023-02-25T15:40:51.359Z,43.60
2023-02-25T15:42:49.320Z,42.40
2023-02-25T15:44:38.318Z,42.70
2023-02-25T15:46:41.035Z,43.30
2023-02-25T15:48:38.385Z,44.00
2023-02-25T15:50:12.854Z,44.80
2023-02-25T15:51:51.522Z,44.90
2023-02-25T15:53:55.544Z,44.30
2023-02-25T15:55:40.838Z,43.30
2023-02-25T15:57:49.535Z,43.80
2023-02-25T15:59:46.693Z,43.60
2023-02-25T16:01:42.772Z,43.90
2023-02-25T16:03:43.769Z,44.40
2023-02-25T16:05:28.581Z,43.90
2023-02-25T16:07:01.741Z,44.00
2023-02-25T16:08:40.920Z,43.80
2023-02-25T16:10:27.583Z,43.80
2023-02-25T16:12:08.771Z,43.90
2023-02-25T16:13:43.932Z,43.90
2023-02-25T16:15:28.643Z,44.10
2023-02-25T16:17:07.813Z,44.70
2023-02-25T16:18:49.083Z,44.70
2023-02-25T16:20:29.612Z,44.40
2023-02-25T16:22:09.239Z,43.90
2023-02-25T16:23:44.412Z,43.90
2023-02-25T16:25:26.907Z,44.00
2023-02-25T16:27:06.317Z,44.10
2023-02-25T16:28:55.114Z,44.20
2023-02-25T16:30:41.407Z,44.00
2023-02-25T16:32:30.057Z,43.80
2023-02-25T16:34:12.373Z,43.40
2023-02-25T16:36:02.611Z,42.90
2023-02-25T16:37:51.456Z,42.70
2023-02-25T16:39:29.036Z,42.80
2023-02-25T16:41:02.886Z,43.00
2023-02-25T16:42:36.344Z,43.50
2023-02-25T16:44:10.210Z,43.20
2023-02-25T16:45:56.121Z,43.40
2023-02-25T16:47:32.651Z,43.50
2023-02-25T16:49:14.819Z,43.50
2023-02-25T16:50:51.390Z,44.20
2023-02-25T16:52:31.531Z,44.50
2023-02-25T16:54:10.023Z,45.60
2023-02-25T16:55:43.283Z,45.00
2023-02-25T16:57:24.664Z,44.60
2023-02-25T16:59:06.967Z,44.90
2023-02-25T17:00:53.096Z,45.40
2023-02-25T17:02:26.688Z,45.80
2023-02-25T17:04:16.208Z,45.50
2023-02-25T17:06:04.687Z,45.20
2023-02-25T17:07:37.747Z,45.80
2023-02-25T17:09:24.358Z,45.70
2023-02-25T17:11:02.164Z,45.10
2023-02-25T17:12:41.084Z,45.40
2023-02-25T17:14:14.404Z,46.10
2023-02-25T17:15:47.743Z,46.50
2023-02-25T17:17:29.033Z,46.70
2023-02-25T17:19:06.101Z,46.90
2023-02-25T17:20:42.458Z,46.20
2023-02-25T17:22:22.385Z,45.10
2023-02-25T17:23:56.944Z,45.20
2023-02-25T17:25:38.215Z,45.60
2023-02-25T17:27:12.810Z,46.10
2023-02-25T17:28:50.477Z,46.40
2023-02-25T17:30:40.391Z,46.60
2023-02-25T17:32:21.721Z,47.10
2023-02-25T17:33:57.320Z,47.30
2023-02-25T17:35:32.124Z,47.30
2023-02-25T17:37:13.292Z,47.40
2023-02-25T17:38:59.016Z,47.30
2023-02-25T17:40:33.156Z,47.20
2023-02-25T17:42:32.247Z,47.60
2023-02-25T17:44:05.889Z,48.50
2023-02-25T17:45:44.641Z,48.20
2023-02-25T17:47:24.454Z,48.40
2023-02-25T17:49:01.256Z,48.70
2023-02-25T17:50:34.716Z,48.90
2023-02-25T17:52:21.682Z,49.20
2023-02-25T17:53:59.155Z,49.50
2023-02-25T17:55:36.292Z,49.50
2023-02-25T17:57:15.006Z,49.60
2023-02-25T17:58:49.008Z,49.60
2023-02-25T18:00:27.282Z,49.70
2023-02-25T18:02:03.188Z,50.00
2023-02-25T18:03:46.655Z,50.30
2023-02-25T18:05:25.387Z,50.60
2023-02-25T18:07:00.172Z,50.70
2023-02-25T18:08:53.448Z,50.70
2023-02-25T18:10:50.036Z,51.10
2023-02-25T18:12:27.981Z,51.20
2023-02-25T18:14:27.963Z,51.20
2023-02-25T18:16:40.654Z,51.40
2023-02-25T18:18:22.965Z,51.60
2023-02-25T18:19:59.072Z,51.60
2023-02-25T18:21:32.228Z,51.60
2023-02-25T18:23:08.749Z,51.70
2023-02-25T18:24:55.378Z,51.90
2023-02-25T18:26:28.434Z,52.20
2023-02-25T18:28:02.731Z,52.30
2023-02-25T18:29:36.047Z,52.00
2023-02-25T18:31:09.807Z,51.90
2023-02-25T18:32:43.250Z,51.90
2023-02-25T18:34:16.387Z,52.00
2023-02-25T18:35:50.114Z,52.20
2023-02-25T18:37:23.546Z,52.30
2023-02-25T18:39:04.545Z,52.30
2023-02-25T18:40:42.118Z,52.30
2023-02-25T18:42:18.553Z,52.20
2023-02-25T18:43:54.439Z,52.00
2023-02-25T18:45:30.630Z,52.30
2023-02-25T18:47:03.996Z,52.50
2023-02-25T18:48:37.325Z,52.50
2023-02-25T18:50:12.761Z,52.10
2023-02-25T18:51:46.370Z,51.60
2023-02-25T18:53:24.304Z,50.90
2023-02-25T18:54:57.446Z,50.50
2023-02-25T18:56:32.758Z,50.60
2023-02-25T18:58:05.969Z,50.10
2023-02-25T18:59:39.037Z,49.90
2023-02-25T19:01:23.604Z,49.70
2023-02-25T19:03:00.833Z,49.50
2023-02-25T19:04:34.158Z,49.60
2023-02-25T19:06:08.141Z,50.10
2023-02-25T19:07:41.502Z,50.30
2023-02-25T19:09:16.030Z,50.30
2023-02-25T19:10:50.003Z,50.10
2023-02-25T19:12:26.545Z,50.30
2023-02-25T19:13:59.894Z,50.10
2023-02-25T19:15:34.158Z,50.10
2023-02-25T19:17:08.831Z,50.70
2023-02-25T19:18:42.920Z,51.00
2023-02-25T19:20:19.437Z,51.20
2023-02-25T19:21:52.541Z,51.30
2023-02-25T19:23:25.827Z,51.40
2023-02-25T19:24:59.183Z,51.60
2023-02-25T19:26:32.744Z,51.60
2023-02-25T19:28:09.029Z,51.60
2023-02-25T19:29:42.772Z,51.70
2023-02-25T19:31:17.913Z,51.60
2023-02-25T19:32:51.609Z,51.70
2023-02-25T19:34:25.759Z,51.80
2023-02-25T19:35:58.926Z,51.60
2023-02-25T19:37:38.569Z,51.60
2023-02-25T19:39:11.949Z,51.70
2023-02-25T19:40:47.100Z,51.80
2023-02-25T19:42:21.244Z,51.90
2023-02-25T19:43:55.772Z,52.00
2023-02-25T19:45:29.027Z,52.10
2023-02-25T19:47:03.004Z,52.10
2023-02-25T19:48:36.841Z,52.20
2023-02-25T19:50:11.898Z,52.30
2023-02-25T19:51:45.161Z,52.40
2023-02-25T19:53:18.953Z,52.50
2023-02-25T19:54:52.320Z,52.60
2023-02-25T19:56:25.680Z,52.70
2023-02-25T19:57:59.008Z,52.80
2023-02-25T19:59:33.564Z,52.80
2023-02-25T20:01:09.671Z,52.70
2023-02-25T20:02:43.511Z,52.70
2023-02-25T20:04:17.626Z,52.80
2023-02-25T20:05:52.099Z,52.90
2023-02-25T20:07:25.620Z,52.90
2023-02-25T20:08:58.791Z,52.90
2023-02-25T20:10:32.015Z,53.00
2023-02-25T20:12:06.400Z,53.10
2023-02-25T20:13:41.411Z,53.20
2023-02-25T20:15:17.787Z,53.30
2023-02-25T20:16:51.810Z,53.40
2023-02-25T20:18:25.009Z,53.30
2023-02-25T20:19:58.389Z,53.30
2023-02-25T20:21:31.943Z,53.50
2023-02-25T20:23:05.150Z,53.60
2023-02-25T20:24:38.337Z,53.50
2023-02-25T20:26:17.220Z,53.60
2023-02-25T20:27:50.512Z,53.80
2023-02-25T20:29:24.308Z,53.70
2023-02-25T20:31:06.517Z,53.80
2023-02-25T20:32:39.769Z,54.00
2023-02-25T20:34:18.827Z,53.90
2023-02-25T20:35:52.419Z,54.00
2023-02-25T20:37:31.244Z,54.00
2023-02-25T20:39:26.234Z,54.10
2023-02-25T20:40:59.551Z,54.30
2023-02-25T20:42:33.191Z,54.20
2023-02-25T20:44:06.922Z,54.20
2023-02-25T20:45:40.846Z,54.10
2023-02-25T20:47:30.432Z,54.20
2023-02-25T20:49:08.087Z,54.30
2023-02-25T20:50:42.106Z,54.20
2023-02-25T20:52:17.102Z,54.30
2023-02-25T20:53:51.079Z,54.40
2023-02-25T20:55:24.690Z,54.50
2023-02-25T20:56:57.847Z,54.70
2023-02-25T20:58:33.077Z,54.70
2023-02-25T21:00:09.340Z,54.60
2023-02-25T21:01:43.389Z,54.80
2023-02-25T21:03:18.299Z,54.80
2023-02-25T21:04:54.582Z,54.90
2023-02-25T21:06:28.628Z,55.00
2023-02-25T21:08:10.517Z,55.20
2023-02-25T21:09:46.440Z,55.50
2023-02-25T21:11:21.286Z,55.30
2023-02-25T21:13:00.102Z,55.50
2023-02-25T21:14:36.361Z,55.50
2023-02-25T21:16:12.772Z,55.50
2023-02-25T21:17:48.697Z,55.50
2023-02-25T21:19:29.115Z,55.50
2023-02-25T21:21:07.566Z,55.50
2023-02-25T21:22:41.012Z,56.10
2023-02-25T21:24:28.242Z,55.70
2023-02-25T21:26:07.150Z,55.70
2023-02-25T21:27:43.554Z,55.70
2023-02-25T21:29:19.980Z,55.70
2023-02-25T21:31:00.215Z,55.90
2023-02-25T21:32:33.703Z,55.90
2023-02-25T21:34:11.639Z,55.90
2023-02-25T21:35:53.865Z,56.70
2023-02-25T21:37:28.014Z,56.10
2023-02-25T21:39:01.855Z,56.20
2023-02-25T21:40:37.030Z,56.30
2023-02-25T21:42:13.046Z,56.30
2023-02-25T21:43:46.576Z,56.10
2023-02-25T21:45:19.706Z,56.20
2023-02-25T21:46:59.310Z,56.30
2023-02-25T21:48:35.897Z,56.30
2023-02-25T21:50:10.870Z,56.10
2023-02-25T21:51:45.803Z,56.20
2023-02-25T21:53:22.954Z,56.40
2023-02-25T21:55:00.462Z,56.20
2023-02-25T21:56:35.471Z,56.00
2023-02-25T21:58:08.858Z,56.10
2023-02-25T21:59:41.970Z,55.90
2023-02-25T22:01:24.422Z,55.80
2023-02-25T22:02:57.963Z,55.60
2023-02-25T22:04:31.128Z,55.60
2023-02-25T22:06:04.887Z,55.50
2023-02-25T22:07:39.525Z,55.50
2023-02-25T22:09:16.397Z,55.60
2023-02-25T22:10:49.809Z,55.50
2023-02-25T22:12:23.079Z,55.50
2023-02-25T22:13:56.794Z,55.90
2023-02-25T22:15:31.039Z,56.10
2023-02-25T22:17:07.615Z,56.10
2023-02-25T22:18:44.351Z,56.10
2023-02-25T22:20:18.418Z,56.10
2023-02-25T22:21:55.780Z,56.10
2023-02-25T22:23:34.392Z,56.00
2023-02-25T22:25:08.878Z,56.20